createdAt,value
2022-10-18T00:02:15.869Z,4.22
2022-10-18T00:04:42.686Z,4.88
2022-10-18T00:07:09.218Z,4.55
2022-10-18T00:09:36.068Z,4.90
2022-10-18T00:12:02.661Z,4.88
2022-10-18T00:14:29.235Z,4.43
2022-10-18T00:16:55.767Z,4.25
2022-10-18T00:19:25.897Z,4.95
2022-10-18T00:21:55.194Z,4.93
2022-10-18T00:24:21.830Z,4.35
2022-10-18T00:26:48.460Z,4.65
2022-10-18T00:29:16.539Z,4.30
2022-10-18T00:31:44.404Z,4.95
2022-10-18T00:34:16.273Z,4.35
2022-10-18T00:36:44.036Z,4.63
2022-10-18T00:39:17.699Z,4.88
2022-10-18T00:41:44.936Z,4.72
2022-10-18T00:44:11.538Z,4.57
2022-10-18T00:46:41.102Z,5.45
2022-10-18T00:49:12.526Z,4.80
2022-10-18T00:51:44.366Z,5.47
2022-10-18T00:54:12.586Z,5.63
2022-10-18T00:56:39.978Z,5.18
2022-10-18T00:59:08.040Z,5.25
2022-10-18T01:01:35.868Z,5.22
2022-10-18T01:04:02.819Z,6.10
2022-10-18T01:06:29.744Z,5.30
2022-10-18T01:09:27.942Z,4.95
2022-10-18T01:12:14.092Z,5.07
2022-10-18T01:14:51.892Z,5.95
2022-10-18T01:17:25.669Z,4.47
2022-10-18T01:20:30.276Z,4.88
2022-10-18T01:23:06.142Z,5.25
2022-10-18T01:25:32.714Z,4.60
2022-10-18T01:27:59.399Z,5.13
2022-10-18T01:30:59.552Z,5.63
2022-10-18T01:33:33.234Z,5.63
2022-10-18T01:36:29.656Z,4.75
2022-10-18T01:38:59.753Z,5.47
2022-10-18T01:41:28.469Z,5.47
2022-10-18T01:43:59.857Z,5.20
2022-10-18T01:46:28.460Z,5.32
2022-10-18T01:48:56.484Z,5.23
2022-10-18T01:51:28.444Z,5.38
2022-10-18T01:53:56.052Z,5.15
2022-10-18T01:56:30.629Z,5.32
2022-10-18T01:59:24.455Z,5.47
2022-10-18T02:02:11.029Z,5.68
2022-10-18T02:04:50.239Z,5.22
2022-10-18T02:07:49.006Z,5.22
2022-10-18T02:10:32.118Z,5.03
2022-10-18T02:13:00.142Z,5.78
2022-10-18T02:15:33.171Z,6.70
2022-10-18T02:18:05.181Z,5.68
2022-10-18T02:20:36.630Z,6.25
2022-10-18T02:23:05.341Z,5.43
2022-10-18T02:25:34.390Z,8.07
2022-10-18T02:28:02.406Z,6.78
2022-10-18T02:30:37.449Z,9.75
2022-10-18T02:33:22.795Z,7.72
2022-10-18T02:35:56.127Z,6.65
2022-10-18T02:38:25.664Z,6.88
2022-10-18T02:40:52.590Z,5.90
2022-10-18T02:43:19.187Z,7.10
2022-10-18T02:45:45.995Z,6.30
2022-10-18T02:48:12.563Z,9.93
2022-10-18T02:50:39.229Z,6.32
2022-10-18T02:53:06.422Z,6.28
2022-10-18T02:55:33.685Z,7.10
2022-10-18T02:58:00.339Z,6.03
2022-10-18T03:00:26.998Z,5.40
2022-10-18T03:02:53.971Z,6.22
2022-10-18T03:05:20.556Z,6.80
2022-10-18T03:07:48.337Z,6.25
2022-10-18T03:10:15.039Z,6.68
2022-10-18T03:12:41.619Z,6.00
2022-10-18T03:15:08.488Z,7.05
2022-10-18T03:17:35.237Z,6.43
2022-10-18T03:20:01.932Z,6.50
2022-10-18T03:25:00.121Z,7.10
2022-10-18T03:27:26.783Z,6.85
2022-10-18T03:29:53.391Z,8.32
2022-10-18T03:32:19.985Z,8.02
2022-10-18T03:34:46.544Z,6.97
2022-10-18T03:37:13.236Z,6.90
2022-10-18T03:39:39.862Z,5.90
2022-10-18T03:42:06.430Z,7.10
2022-10-18T03:44:33.004Z,11.73
2022-10-18T03:46:59.615Z,7.13
2022-10-18T03:49:26.161Z,8.13
2022-10-18T03:51:52.796Z,9.15
2022-10-18T03:54:19.471Z,12.70
2022-10-18T03:56:46.105Z,12.95
2022-10-18T03:59:12.634Z,11.43
2022-10-18T04:01:39.230Z,9.60
2022-10-18T04:04:05.841Z,7.70
2022-10-18T04:06:32.452Z,9.98
2022-10-18T04:08:59.007Z,7.78
2022-10-18T04:11:25.577Z,10.02
2022-10-18T04:13:52.198Z,10.50
2022-10-18T04:16:18.796Z,6.10
2022-10-18T04:18:45.416Z,5.35
2022-10-18T04:21:11.995Z,5.90
2022-10-18T04:23:39.012Z,5.50
2022-10-18T04:26:05.979Z,6.20
2022-10-18T04:28:34.272Z,6.00
2022-10-18T04:31:01.200Z,5.50
2022-10-18T04:33:27.839Z,5.53
2022-10-18T04:35:54.442Z,5.75
2022-10-18T04:38:21.041Z,5.63
2022-10-18T04:40:47.588Z,5.78
2022-10-18T04:43:14.394Z,6.45
2022-10-18T04:45:41.013Z,5.50
2022-10-18T04:48:07.736Z,6.25
2022-10-18T04:50:34.312Z,6.05
2022-10-18T04:53:00.893Z,7.43
2022-10-18T04:55:27.565Z,6.00
2022-10-18T04:57:54.251Z,8.55
2022-10-18T05:00:21.102Z,7.07
2022-10-18T05:02:47.763Z,6.03
2022-10-18T05:05:14.573Z,6.25
2022-10-18T05:07:41.248Z,5.00
2022-10-18T05:10:08.337Z,5.57
2022-10-18T05:12:35.151Z,5.10
2022-10-18T05:15:01.948Z,4.20
2022-10-18T05:17:28.565Z,4.70
2022-10-18T05:19:55.116Z,3.72
2022-10-18T05:22:21.719Z,4.40
2022-10-18T05:24:48.449Z,3.58
2022-10-18T05:27:15.161Z,4.70
2022-10-18T05:29:41.838Z,4.30
2022-10-18T05:32:08.402Z,4.93
2022-10-18T05:34:35.054Z,5.18
2022-10-18T05:37:01.667Z,5.55
2022-10-18T05:39:28.418Z,11.52
2022-10-18T05:41:55.042Z,11.93
2022-10-18T05:44:21.730Z,7.10
2022-10-18T05:46:48.327Z,6.75
2022-10-18T05:49:15.971Z,5.32
2022-10-18T05:51:42.557Z,5.10
2022-10-18T05:54:12.159Z,4.38
2022-10-18T05:59:12.317Z,4.28
2022-10-18T06:01:43.081Z,5.00
2022-10-18T06:04:10.370Z,5.28
2022-10-18T06:06:38.198Z,7.03
2022-10-18T06:09:06.826Z,9.32
2022-10-18T06:11:33.443Z,9.37
2022-10-18T06:14:00.199Z,5.32
2022-10-18T06:16:31.961Z,9.40
2022-10-18T06:19:00.034Z,4.95
2022-10-18T06:21:27.123Z,5.75
2022-10-18T06:23:56.737Z,6.00
2022-10-18T06:26:24.003Z,5.60
2022-10-18T06:28:50.768Z,4.45
2022-10-18T06:31:17.702Z,5.10
2022-10-18T06:33:45.886Z,6.50
2022-10-18T06:36:15.813Z,6.22
2022-10-18T06:38:42.562Z,4.22
2022-10-18T06:41:09.472Z,4.68
2022-10-18T06:43:36.198Z,4.05
2022-10-18T06:46:05.206Z,4.43
2022-10-18T06:48:31.893Z,4.93
2022-10-18T06:51:00.836Z,4.53
2022-10-18T06:53:30.641Z,4.40
2022-10-18T06:56:09.177Z,4.53
2022-10-18T06:58:36.579Z,4.43
2022-10-18T07:01:12.211Z,4.07
2022-10-18T07:03:39.239Z,3.75
2022-10-18T07:06:07.837Z,3.10
2022-10-18T07:08:35.236Z,3.50
2022-10-18T07:11:01.958Z,3.63
2022-10-18T07:13:32.821Z,4.65
2022-10-18T07:16:17.466Z,2.80
2022-10-18T07:18:50.534Z,2.97
2022-10-18T07:21:19.917Z,2.80
2022-10-18T07:26:22.679Z,3.08
2022-10-18T07:28:55.489Z,3.90
2022-10-18T07:31:22.897Z,2.97
2022-10-18T07:33:49.744Z,3.15
2022-10-18T07:36:16.787Z,2.50
2022-10-18T07:38:44.635Z,2.35
2022-10-18T07:41:13.132Z,2.55
2022-10-18T07:43:45.813Z,2.57
2022-10-18T07:46:13.524Z,2.55
2022-10-18T07:48:40.245Z,1.70
2022-10-18T07:51:06.976Z,1.60
2022-10-18T07:53:34.728Z,1.55
2022-10-18T07:56:05.950Z,1.50
2022-10-18T07:58:35.330Z,1.83
2022-10-18T08:01:05.517Z,1.90
2022-10-18T08:03:32.421Z,1.55
2022-10-18T08:05:59.067Z,1.58
2022-10-18T08:08:26.156Z,1.50
2022-10-18T08:10:53.046Z,2.05
2022-10-18T08:13:19.996Z,1.50
2022-10-18T08:15:46.593Z,1.27
2022-10-18T08:18:13.404Z,1.33
2022-10-18T08:20:44.897Z,1.30
2022-10-18T08:23:11.831Z,1.58
2022-10-18T08:25:38.730Z,1.13
2022-10-18T08:28:05.472Z,1.50
2022-10-18T08:30:32.116Z,1.05
2022-10-18T08:32:58.641Z,1.40
2022-10-18T08:35:25.269Z,1.00
2022-10-18T08:37:51.946Z,1.23
2022-10-18T08:40:18.781Z,1.70
2022-10-18T08:43:10.266Z,1.23
2022-10-18T08:45:43.147Z,1.27
2022-10-18T08:48:47.468Z,1.02
2022-10-18T08:51:42.418Z,1.30
2022-10-18T08:54:24.498Z,1.35
2022-10-18T08:56:59.071Z,1.52
2022-10-18T08:59:25.755Z,1.30
2022-10-18T09:02:40.567Z,1.30
2022-10-18T09:05:25.380Z,2.13
2022-10-18T09:07:52.596Z,1.90
2022-10-18T09:10:37.586Z,2.10
2022-10-18T09:13:29.343Z,2.00
2022-10-18T09:15:59.684Z,2.00
2022-10-18T09:19:10.708Z,1.45
2022-10-18T09:21:52.965Z,1.70
2022-10-18T09:24:37.707Z,1.73
2022-10-18T09:27:12.447Z,2.00
2022-10-18T09:29:52.210Z,1.63
2022-10-18T09:33:02.575Z,1.48
2022-10-18T09:35:42.916Z,1.80
2022-10-18T09:38:17.880Z,2.00
2022-10-18T09:41:10.422Z,2.08
2022-10-18T09:43:39.892Z,2.40
2022-10-18T09:46:07.232Z,2.42
2022-10-18T09:49:04.397Z,2.78
2022-10-18T09:51:36.505Z,2.60
2022-10-18T09:54:24.464Z,3.05
2022-10-18T09:56:57.939Z,2.92
2022-10-18T09:59:43.550Z,2.67
2022-10-18T10:02:22.379Z,2.67
2022-10-18T10:04:54.365Z,2.60
2022-10-18T10:07:28.712Z,2.83
2022-10-18T10:10:07.775Z,3.17
2022-10-18T10:12:38.047Z,3.20
2022-10-18T10:15:28.251Z,2.60
2022-10-18T10:18:01.396Z,2.55
2022-10-18T10:20:44.330Z,2.45
2022-10-18T10:23:22.959Z,2.95
2022-10-18T10:26:11.909Z,2.55
2022-10-18T10:28:48.836Z,2.55
2022-10-18T10:31:24.722Z,3.40
2022-10-18T10:34:04.337Z,2.50
2022-10-18T10:36:32.446Z,2.90
2022-10-18T10:39:03.967Z,2.42
2022-10-18T10:44:05.366Z,2.10
2022-10-18T10:46:36.630Z,4.38
2022-10-18T10:49:34.864Z,2.50
2022-10-18T10:52:08.916Z,2.08
2022-10-18T10:54:52.169Z,2.22
2022-10-18T10:57:23.574Z,2.20
2022-10-18T10:59:59.765Z,2.20
2022-10-18T11:02:32.113Z,1.70
2022-10-18T11:05:29.507Z,1.80
2022-10-18T11:08:02.100Z,1.80
2022-10-18T11:10:34.568Z,1.30
2022-10-18T11:13:18.472Z,2.28
2022-10-18T11:15:54.726Z,1.65
2022-10-18T11:18:34.296Z,1.70
2022-10-18T11:21:15.994Z,1.40
2022-10-18T11:23:44.322Z,1.70
2022-10-18T11:26:10.790Z,1.75
2022-10-18T11:28:46.235Z,1.65
2022-10-18T11:31:35.504Z,1.60
2022-10-18T11:36:36.810Z,1.98
2022-10-18T11:39:45.024Z,1.65
2022-10-18T11:42:40.901Z,1.60
2022-10-18T11:48:03.543Z,1.50
2022-10-18T11:51:08.284Z,1.50
2022-10-18T11:53:51.667Z,1.20
2022-10-18T11:56:27.812Z,1.50
2022-10-18T11:59:21.995Z,1.70
2022-10-18T12:02:00.644Z,1.67
2022-10-18T12:04:34.689Z,1.75
2022-10-18T12:07:05.020Z,1.42
2022-10-18T12:09:43.689Z,1.50
2022-10-18T12:12:18.393Z,1.08
2022-10-18T12:14:50.226Z,0.80
2022-10-18T12:17:42.090Z,1.00
2022-10-18T12:20:33.722Z,1.05
2022-10-18T12:23:04.474Z,1.08
2022-10-18T12:25:36.878Z,1.33
2022-10-18T12:28:09.476Z,2.10
2022-10-18T12:30:53.370Z,1.23
2022-10-18T12:33:28.994Z,0.95
2022-10-18T12:36:17.258Z,0.93
2022-10-18T12:38:47.440Z,1.00
2022-10-18T12:41:25.426Z,1.00
2022-10-18T12:43:59.909Z,1.13
2022-10-18T12:46:44.045Z,1.23
2022-10-18T12:49:13.003Z,1.20
2022-10-18T12:51:59.418Z,1.38
2022-10-18T12:54:30.862Z,1.20
2022-10-18T12:56:59.544Z,1.27
2022-10-18T12:59:26.803Z,1.20
2022-10-18T13:01:53.455Z,1.35
2022-10-18T13:04:29.270Z,1.10
2022-10-18T13:07:20.629Z,1.30
2022-10-18T13:10:12.881Z,1.40
2022-10-18T13:12:52.302Z,1.10
2022-10-18T13:15:53.157Z,1.10
2022-10-18T13:18:48.412Z,1.30
2022-10-18T13:21:25.548Z,1.30
2022-10-18T13:24:07.334Z,2.00
2022-10-18T13:29:58.361Z,1.52
2022-10-18T13:32:47.302Z,2.08
2022-10-18T13:35:38.536Z,3.53
2022-10-18T13:38:16.913Z,3.03
2022-10-18T13:40:43.530Z,2.33
2022-10-18T13:43:51.519Z,2.17
2022-10-18T13:46:19.704Z,1.77
2022-10-18T13:48:50.542Z,1.60
2022-10-18T13:51:27.553Z,1.70
2022-10-18T13:54:09.238Z,1.60
2022-10-18T13:56:35.772Z,1.55
2022-10-18T13:59:13.642Z,1.80
2022-10-18T14:01:53.445Z,1.67
2022-10-18T14:06:51.548Z,2.17
2022-10-18T14:09:43.376Z,1.60
2022-10-18T14:12:35.149Z,1.77
2022-10-18T14:15:23.173Z,2.10
2022-10-18T14:17:54.867Z,1.80
2022-10-18T14:20:40.049Z,2.10
2022-10-18T14:23:25.824Z,2.30
2022-10-18T14:26:05.754Z,2.25
2022-10-18T14:28:54.993Z,2.28
2022-10-18T14:31:19.782Z,2.75
2022-10-18T14:33:57.075Z,1.85
2022-10-18T14:36:27.145Z,2.30
2022-10-18T14:41:28.325Z,2.47
2022-10-18T14:44:14.880Z,2.85
2022-10-18T14:46:58.245Z,13.13
2022-10-18T14:49:24.824Z,2.30
2022-10-18T14:51:54.825Z,2.05
2022-10-18T14:54:40.046Z,2.10
2022-10-18T14:57:07.813Z,2.33
2022-10-18T14:59:55.828Z,2.25
2022-10-18T15:02:25.495Z,2.28
2022-10-18T15:05:24.984Z,2.35
2022-10-18T15:07:53.236Z,2.53
2022-10-18T15:10:27.399Z,2.25
2022-10-18T15:13:09.164Z,2.20
2022-10-18T15:15:38.140Z,2.15
2022-10-18T15:18:06.677Z,2.70
2022-10-18T15:20:39.375Z,2.67
2022-10-18T15:23:32.058Z,2.40
2022-10-18T15:26:09.873Z,2.50
2022-10-18T15:28:58.722Z,2.70
2022-10-18T15:31:33.179Z,2.78
2022-10-18T15:34:24.573Z,3.00
2022-10-18T15:36:52.935Z,2.60
2022-10-18T15:39:27.916Z,3.00
2022-10-18T15:41:59.001Z,3.33
2022-10-18T15:44:32.402Z,2.65
2022-10-18T15:47:20.172Z,2.70
2022-10-18T15:49:46.723Z,2.90
2022-10-18T15:52:33.815Z,3.00
2022-10-18T15:55:29.364Z,3.13
2022-10-18T15:58:11.409Z,3.13
2022-10-18T16:00:38.032Z,3.30
2022-10-18T16:03:04.706Z,3.20
2022-10-18T16:05:31.324Z,2.90
2022-10-18T16:07:57.856Z,3.60
2022-10-18T16:10:24.485Z,3.40
2022-10-18T16:12:51.173Z,3.83
2022-10-18T16:15:17.963Z,3.55
2022-10-18T16:17:44.530Z,3.63
2022-10-18T16:20:25.178Z,3.65
2022-10-18T16:22:51.713Z,3.80
2022-10-18T16:25:18.337Z,4.05
2022-10-18T16:27:44.880Z,3.85
2022-10-18T16:30:15.850Z,3.78
2022-10-18T16:32:42.451Z,3.45
2022-10-18T16:35:10.251Z,3.33
2022-10-18T16:37:38.279Z,4.13
2022-10-18T16:40:25.871Z,5.80
2022-10-18T16:42:52.382Z,5.78
2022-10-18T16:45:19.168Z,6.07
2022-10-18T16:47:46.065Z,6.40
2022-10-18T16:50:18.905Z,5.15
2022-10-18T16:52:45.552Z,5.60
2022-10-18T16:55:21.356Z,5.22
2022-10-18T16:57:49.588Z,5.70
2022-10-18T17:00:20.749Z,5.55
2022-10-18T17:02:48.804Z,6.55
2022-10-18T17:05:17.155Z,6.82
2022-10-18T17:07:44.293Z,4.70
2022-10-18T17:10:20.287Z,4.93
2022-10-18T17:12:47.193Z,6.22
2022-10-18T17:15:13.798Z,6.72
2022-10-18T17:17:40.351Z,7.93
2022-10-18T17:20:08.709Z,7.63
2022-10-18T17:22:38.226Z,9.02
2022-10-18T17:25:05.079Z,7.40
2022-10-18T17:27:31.926Z,6.32
2022-10-18T17:29:58.827Z,6.70
2022-10-18T17:32:25.558Z,7.35
2022-10-18T17:34:52.265Z,7.72
2022-10-18T17:37:18.871Z,8.52
2022-10-18T17:39:45.518Z,7.75
2022-10-18T17:42:12.134Z,6.70
2022-10-18T17:44:38.781Z,6.80
2022-10-18T17:47:05.435Z,6.72
2022-10-18T17:49:32.024Z,7.07
2022-10-18T17:52:01.110Z,6.63
2022-10-18T17:54:29.725Z,7.00
2022-10-18T17:56:56.569Z,6.47
2022-10-18T17:59:23.407Z,6.97
2022-10-18T18:01:50.053Z,7.80
2022-10-18T18:04:17.115Z,7.43
2022-10-18T18:06:45.448Z,7.22
2022-10-18T18:09:16.466Z,7.82
2022-10-18T18:11:44.844Z,7.30
2022-10-18T18:14:13.206Z,8.75
2022-10-18T18:16:42.161Z,8.10
2022-10-18T18:19:10.057Z,7.30
2022-10-18T18:21:37.515Z,7.50
2022-10-18T18:24:04.548Z,8.13
2022-10-18T18:26:32.917Z,8.20
2022-10-18T18:29:00.134Z,10.68
2022-10-18T18:31:30.713Z,9.32
2022-10-18T18:34:01.221Z,8.00
2022-10-18T18:36:29.208Z,8.77
2022-10-18T18:38:57.771Z,8.25
2022-10-18T18:41:26.583Z,8.23
2022-10-18T18:43:58.339Z,7.63
2022-10-18T18:46:27.109Z,7.28
2022-10-18T18:48:53.794Z,8.48
2022-10-18T18:51:21.751Z,8.63
2022-10-18T18:53:48.788Z,7.85
2022-10-18T18:58:49.224Z,7.72
2022-10-18T19:01:18.953Z,9.05
2022-10-18T19:03:48.582Z,10.02
2022-10-18T19:06:18.135Z,10.00
2022-10-18T19:08:45.744Z,10.43
2022-10-18T19:11:18.097Z,13.23
2022-10-18T19:13:45.315Z,8.93
2022-10-18T19:16:23.236Z,11.65
2022-10-18T19:18:51.833Z,11.30
2022-10-18T19:21:18.482Z,8.27
2022-10-18T19:23:45.020Z,7.03
2022-10-18T19:26:23.308Z,13.95
2022-10-18T19:28:49.936Z,16.58
2022-10-18T19:31:16.651Z,13.95
2022-10-18T19:33:55.580Z,13.70
2022-10-18T19:36:25.379Z,7.65
2022-10-18T19:38:51.963Z,11.70
2022-10-18T19:41:18.683Z,10.07
2022-10-18T19:43:45.276Z,7.03
2022-10-18T19:46:11.821Z,11.10
2022-10-18T19:48:38.407Z,7.80
2022-10-18T19:51:09.627Z,6.28
2022-10-18T19:53:36.845Z,6.05
2022-10-18T19:56:05.161Z,8.10
2022-10-18T19:58:32.336Z,7.15
2022-10-18T20:01:00.314Z,23.30
2022-10-18T20:03:30.350Z,17.50
2022-10-18T20:06:02.126Z,7.53
2022-10-18T20:08:30.689Z,8.95
2022-10-18T20:11:05.268Z,7.20
2022-10-18T20:13:32.180Z,12.73
2022-10-18T20:15:58.823Z,11.48
2022-10-18T20:18:25.827Z,9.25
2022-10-18T20:20:52.838Z,8.32
2022-10-18T20:23:20.151Z,7.85
2022-10-18T20:26:08.622Z,10.02
2022-10-18T20:28:37.790Z,8.30
2022-10-18T20:31:08.703Z,9.57
2022-10-18T20:33:36.199Z,13.23
2022-10-18T20:36:11.756Z,9.35
2022-10-18T20:38:41.376Z,11.13
2022-10-18T20:41:20.683Z,6.32
2022-10-18T20:43:51.959Z,7.95
2022-10-18T20:46:18.969Z,7.90
2022-10-18T20:48:45.621Z,6.00
2022-10-18T20:51:14.803Z,16.23
2022-10-18T20:53:41.445Z,8.85
2022-10-18T20:56:20.435Z,8.15
2022-10-18T20:58:49.283Z,6.60
2022-10-18T21:01:21.809Z,6.00
2022-10-18T21:03:50.461Z,9.18
2022-10-18T21:06:19.824Z,17.97
2022-10-18T21:11:14.224Z,10.20
2022-10-18T21:13:43.487Z,6.10
2022-10-18T21:16:10.239Z,7.80
2022-10-18T21:18:40.337Z,6.95
2022-10-18T21:23:45.995Z,6.43
2022-10-18T21:26:24.092Z,5.75
2022-10-18T21:28:52.511Z,6.28
2022-10-18T21:31:25.421Z,9.38
2022-10-18T21:33:54.613Z,9.65
2022-10-18T21:36:21.765Z,6.68
2022-10-18T21:38:49.093Z,9.35
2022-10-18T21:41:17.356Z,6.82
2022-10-18T21:43:46.946Z,7.28
2022-10-18T21:46:15.202Z,6.72
2022-10-18T21:48:46.890Z,8.55
2022-10-18T21:51:15.401Z,7.20
2022-10-18T21:53:43.910Z,12.63
2022-10-18T21:56:14.245Z,6.80
2022-10-18T21:58:41.969Z,7.35
2022-10-18T22:01:09.702Z,16.38
2022-10-18T22:03:37.117Z,8.07
2022-10-18T22:06:08.019Z,10.80
2022-10-18T22:08:35.080Z,11.35
2022-10-18T22:11:02.998Z,8.18
2022-10-18T22:13:29.677Z,9.40
2022-10-18T22:15:56.254Z,11.10
2022-10-18T22:18:24.517Z,8.50
2022-10-18T22:20:59.873Z,8.35
2022-10-18T22:23:41.708Z,6.95
2022-10-18T22:26:12.294Z,7.13
2022-10-18T22:28:40.676Z,5.45
2022-10-18T22:31:17.166Z,6.10
2022-10-18T22:33:44.284Z,5.88
2022-10-18T22:36:11.472Z,5.30
2022-10-18T22:38:38.588Z,6.13
2022-10-18T22:41:09.323Z,10.18
2022-10-18T22:43:36.878Z,5.95
2022-10-18T22:46:08.745Z,6.05
2022-10-18T22:48:35.694Z,7.40
2022-10-18T22:51:03.143Z,8.18
2022-10-18T22:53:29.936Z,15.75
2022-10-18T22:55:56.632Z,8.30
2022-10-18T22:58:23.338Z,9.63
2022-10-18T23:00:50.309Z,5.63
2022-10-18T23:03:18.518Z,6.93
2022-10-18T23:05:46.769Z,5.70
2022-10-18T23:08:14.584Z,6.28
2022-10-18T23:10:42.286Z,5.60
2022-10-18T23:13:08.984Z,9.30
2022-10-18T23:15:35.819Z,5.20
2022-10-18T23:18:02.480Z,7.05
2022-10-18T23:20:29.044Z,8.45
2022-10-18T23:22:55.732Z,7.63
2022-10-18T23:25:22.374Z,12.82
2022-10-18T23:27:49.079Z,9.10
2022-10-18T23:30:16.680Z,7.15
2022-10-18T23:32:43.676Z,8.13
2022-10-18T23:35:10.281Z,9.43
2022-10-18T23:37:37.158Z,21.00
2022-10-18T23:40:04.442Z,11.85
2022-10-18T23:42:31.077Z,8.88
2022-10-18T23:44:57.654Z,8.18
2022-10-18T23:47:24.221Z,6.05
2022-10-18T23:49:50.853Z,7.78
2022-10-18T23:52:17.450Z,8.77
2022-10-18T23:57:15.481Z,8.95
2022-10-18T23:59:42.046Z,16.98
